createdAt,value
2017-08-07T00:00:53.432Z,12.94
2017-08-07T00:03:21.295Z,12.88
2017-08-07T00:05:49.101Z,12.82
2017-08-07T00:08:16.910Z,12.71
2017-08-07T00:10:44.668Z,12.64
2017-08-07T00:13:12.479Z,12.62
2017-08-07T00:15:40.340Z,12.56
2017-08-07T00:18:08.144Z,12.52
2017-08-07T00:20:35.900Z,12.49
2017-08-07T00:23:03.722Z,12.45
2017-08-07T00:25:31.582Z,12.37
2017-08-07T00:27:59.388Z,12.31
2017-08-07T00:30:27.273Z,12.29
2017-08-07T00:32:55.087Z,12.25
2017-08-07T00:35:22.944Z,12.25
2017-08-07T00:37:50.810Z,12.22
2017-08-07T00:40:18.673Z,12.14
2017-08-07T00:42:46.482Z,12.09
2017-08-07T00:45:14.308Z,12.03
2017-08-07T00:47:42.179Z,11.98
2017-08-07T00:50:09.896Z,11.94
2017-08-07T00:52:37.785Z,11.90
2017-08-07T00:55:05.612Z,11.90
2017-08-07T00:57:33.447Z,11.85
2017-08-07T01:00:01.293Z,11.80
2017-08-07T01:02:29.134Z,11.78
2017-08-07T01:04:56.949Z,11.75
2017-08-07T01:07:24.808Z,11.70
2017-08-07T01:09:52.529Z,11.65
2017-08-07T01:12:20.391Z,11.59
2017-08-07T01:14:48.191Z,11.57
2017-08-07T01:17:16.072Z,11.52
2017-08-07T01:19:43.873Z,11.51
2017-08-07T01:22:11.715Z,11.44
2017-08-07T01:24:39.572Z,11.38
2017-08-07T01:27:07.407Z,11.34
2017-08-07T01:29:35.264Z,11.35
2017-08-07T01:32:03.085Z,11.34
2017-08-07T01:34:30.952Z,11.31
2017-08-07T01:36:58.766Z,11.26
2017-08-07T01:39:26.641Z,11.19
2017-08-07T01:41:54.517Z,11.14
2017-08-07T01:44:22.382Z,11.07
2017-08-07T01:46:50.228Z,10.99
2017-08-07T01:49:18.098Z,10.91
2017-08-07T01:51:45.910Z,10.83
2017-08-07T01:54:13.789Z,10.82
2017-08-07T01:56:41.583Z,10.78
2017-08-07T01:59:09.478Z,10.79
2017-08-07T02:01:37.344Z,10.83
2017-08-07T02:04:05.214Z,10.87
2017-08-07T02:06:33.068Z,10.89
2017-08-07T02:09:00.792Z,10.90
2017-08-07T02:11:28.672Z,10.91
2017-08-07T02:13:56.480Z,10.90
2017-08-07T02:16:24.346Z,10.84
2017-08-07T02:18:52.164Z,10.78
2017-08-07T02:21:20.016Z,10.76
2017-08-07T02:23:47.830Z,10.72
2017-08-07T02:26:15.709Z,10.67
2017-08-07T02:28:43.516Z,10.59
2017-08-07T02:31:11.267Z,10.62
2017-08-07T02:33:39.123Z,10.64
2017-08-07T02:36:06.939Z,10.63
2017-08-07T02:38:34.824Z,10.54
2017-08-07T02:41:02.641Z,10.46
2017-08-07T02:43:30.492Z,10.41
2017-08-07T02:45:58.301Z,10.40
2017-08-07T02:48:26.159Z,10.43
2017-08-07T02:50:53.963Z,10.41
2017-08-07T02:53:21.828Z,10.35
2017-08-07T02:55:49.620Z,10.27
2017-08-07T02:58:17.431Z,10.22
2017-08-07T03:00:45.349Z,10.21
2017-08-07T03:03:13.154Z,10.22
2017-08-07T03:05:41.017Z,10.23
2017-08-07T03:08:08.846Z,10.23
2017-08-07T03:10:36.713Z,10.16
2017-08-07T03:13:04.533Z,10.07
2017-08-07T03:15:32.407Z,10.00
2017-08-07T03:18:00.213Z,9.95
2017-08-07T03:20:28.097Z,9.92
2017-08-07T03:22:55.892Z,9.88
2017-08-07T03:25:23.741Z,9.85
2017-08-07T03:27:51.506Z,9.87
2017-08-07T03:30:19.353Z,9.87
2017-08-07T03:32:47.157Z,9.86
2017-08-07T03:35:14.999Z,9.84
2017-08-07T03:37:42.812Z,9.82
2017-08-07T03:40:10.613Z,9.84
2017-08-07T03:42:38.456Z,9.86
2017-08-07T03:45:06.273Z,9.89
2017-08-07T03:47:34.224Z,9.90
2017-08-07T03:50:02.040Z,9.85
2017-08-07T03:52:29.996Z,9.84
2017-08-07T03:54:57.842Z,9.83
2017-08-07T03:57:25.784Z,9.80
2017-08-07T03:59:53.700Z,9.71
2017-08-07T04:02:21.665Z,9.63
2017-08-07T04:04:49.484Z,9.64
2017-08-07T04:07:17.433Z,9.67
2017-08-07T04:09:45.282Z,9.70
2017-08-07T04:12:13.156Z,9.74
2017-08-07T04:14:40.964Z,9.86
2017-08-07T04:17:08.764Z,9.99
2017-08-07T04:19:36.613Z,10.05
2017-08-07T04:22:04.434Z,10.05
2017-08-07T04:24:32.313Z,10.08
2017-08-07T04:27:00.129Z,10.15
2017-08-07T04:29:27.892Z,10.23
2017-08-07T04:31:55.717Z,10.28
2017-08-07T04:34:23.569Z,10.35
2017-08-07T04:36:51.396Z,10.36
2017-08-07T04:39:19.250Z,10.36
2017-08-07T04:41:47.035Z,10.38
2017-08-07T04:44:14.899Z,10.37
2017-08-07T04:46:42.733Z,10.40
2017-08-07T04:49:10.591Z,10.45
2017-08-07T04:51:38.408Z,10.54
2017-08-07T04:54:06.229Z,10.62
2017-08-07T04:56:34.073Z,10.71
2017-08-07T04:59:01.898Z,10.81
2017-08-07T05:01:29.801Z,10.93
2017-08-07T05:03:57.624Z,11.07
2017-08-07T05:06:25.526Z,11.27
2017-08-07T05:08:53.364Z,11.50
2017-08-07T05:11:21.214Z,12.13
2017-08-07T05:13:49.950Z,13.11
2017-08-07T05:16:17.814Z,13.68
2017-08-07T05:18:45.625Z,13.93
2017-08-07T05:21:13.402Z,14.31
2017-08-07T05:23:41.208Z,15.26
2017-08-07T05:26:09.008Z,16.59
2017-08-07T05:28:36.891Z,18.14
2017-08-07T05:31:04.730Z,19.26
2017-08-07T05:33:36.092Z,19.80
2017-08-07T05:36:03.934Z,20.01
2017-08-07T05:38:31.802Z,19.68
2017-08-07T05:40:59.518Z,19.07
2017-08-07T05:43:27.374Z,18.37
2017-08-07T05:45:55.194Z,17.43
2017-08-07T05:48:23.073Z,16.54
2017-08-07T05:50:50.891Z,16.03
2017-08-07T05:53:18.704Z,15.72
2017-08-07T05:55:46.599Z,15.53
2017-08-07T05:58:14.423Z,15.49
2017-08-07T06:00:42.308Z,15.51
2017-08-07T06:03:10.144Z,15.66
2017-08-07T06:05:38.031Z,15.85
2017-08-07T06:08:05.835Z,15.99
2017-08-07T06:10:33.737Z,16.08
2017-08-07T06:13:01.593Z,16.20
2017-08-07T06:15:29.480Z,16.42
2017-08-07T06:17:57.305Z,16.70
2017-08-07T06:20:25.151Z,16.76
2017-08-07T06:22:52.978Z,16.75
2017-08-07T06:25:20.859Z,16.69
2017-08-07T06:27:48.696Z,16.72
2017-08-07T06:30:16.522Z,16.82
2017-08-07T06:32:44.389Z,16.79
2017-08-07T06:35:12.171Z,16.86
2017-08-07T06:37:39.932Z,16.80
2017-08-07T06:40:13.065Z,16.85
2017-08-07T06:42:40.818Z,16.95
2017-08-07T06:45:08.548Z,17.04
2017-08-07T06:47:36.328Z,17.06
2017-08-07T06:50:04.065Z,17.19
2017-08-07T06:52:31.839Z,17.36
2017-08-07T06:54:59.547Z,17.50
2017-08-07T06:57:27.324Z,17.66
2017-08-07T06:59:55.056Z,17.74
2017-08-07T07:02:22.773Z,17.90
2017-08-07T07:04:50.545Z,18.00
2017-08-07T07:07:18.291Z,18.12
2017-08-07T07:09:46.076Z,18.31
2017-08-07T07:12:13.781Z,18.38
2017-08-07T07:14:41.600Z,18.61
2017-08-07T07:17:09.345Z,18.93
2017-08-07T07:19:37.108Z,19.06
2017-08-07T07:22:04.825Z,19.21
2017-08-07T07:24:32.611Z,19.46
2017-08-07T07:27:00.331Z,19.73
2017-08-07T07:29:28.104Z,19.86
2017-08-07T07:31:55.846Z,20.02
2017-08-07T07:34:23.633Z,20.08
2017-08-07T07:36:51.375Z,20.28
2017-08-07T07:39:19.177Z,20.49
2017-08-07T07:41:46.965Z,20.72
2017-08-07T07:44:14.694Z,20.82
2017-08-07T07:46:42.468Z,20.85
2017-08-07T07:49:10.184Z,21.03
2017-08-07T07:51:37.962Z,21.17
2017-08-07T07:54:05.704Z,21.28
2017-08-07T07:56:33.486Z,21.36
2017-08-07T07:59:01.256Z,21.51
2017-08-07T08:01:29.047Z,21.70
2017-08-07T08:03:56.828Z,21.85
2017-08-07T08:06:24.595Z,21.72
2017-08-07T08:08:52.717Z,21.80
2017-08-07T08:11:20.497Z,21.78
2017-08-07T08:13:48.273Z,21.69
2017-08-07T08:16:15.993Z,21.66
2017-08-07T08:18:43.922Z,21.90
2017-08-07T08:21:11.674Z,21.85
2017-08-07T08:23:39.582Z,22.04
2017-08-07T08:26:07.461Z,22.09
2017-08-07T08:28:35.236Z,22.10
2017-08-07T08:31:03.064Z,22.30
2017-08-07T08:33:30.883Z,22.63
2017-08-07T08:35:58.744Z,22.97
2017-08-07T08:38:26.672Z,23.10
2017-08-07T08:40:54.512Z,23.15
2017-08-07T08:43:22.432Z,23.16
2017-08-07T08:45:50.237Z,23.09
2017-08-07T08:48:18.110Z,23.33
2017-08-07T08:50:45.924Z,23.35
2017-08-07T08:53:13.697Z,23.52
2017-08-07T08:55:41.582Z,23.56
2017-08-07T08:58:09.408Z,23.65
2017-08-07T09:00:37.224Z,23.88
2017-08-07T09:03:05.049Z,23.83
2017-08-07T09:05:32.964Z,23.69
2017-08-07T09:08:00.789Z,23.76
2017-08-07T09:10:28.689Z,23.84
2017-08-07T09:12:56.529Z,23.86
2017-08-07T09:15:24.408Z,23.72
2017-08-07T09:17:52.219Z,23.66
2017-08-07T09:20:21.051Z,23.57
2017-08-07T09:22:48.895Z,23.73
2017-08-07T09:25:16.614Z,23.81
2017-08-07T09:27:44.491Z,23.63
2017-08-07T09:30:12.338Z,23.83
2017-08-07T09:32:40.180Z,23.89
2017-08-07T09:35:08.024Z,24.00
2017-08-07T09:37:35.895Z,24.00
2017-08-07T09:40:03.791Z,24.09
2017-08-07T09:42:31.683Z,24.13
2017-08-07T09:44:59.510Z,24.22
2017-08-07T09:47:27.356Z,24.22
2017-08-07T09:49:55.169Z,24.33
2017-08-07T09:52:23.059Z,24.32
2017-08-07T09:54:50.883Z,24.18
2017-08-07T09:57:18.717Z,24.13
2017-08-07T09:59:46.612Z,24.01
2017-08-07T10:02:14.452Z,24.12
2017-08-07T10:04:42.311Z,24.09
2017-08-07T10:07:10.120Z,24.28
2017-08-07T10:09:37.981Z,24.55
2017-08-07T10:12:05.716Z,24.67
2017-08-07T10:14:33.576Z,24.75
2017-08-07T10:17:01.376Z,24.91
2017-08-07T10:19:29.100Z,25.01
2017-08-07T10:21:56.884Z,25.04
2017-08-07T10:24:24.632Z,25.02
2017-08-07T10:26:52.537Z,24.96
2017-08-07T10:29:20.388Z,24.95
2017-08-07T10:31:48.305Z,24.76
2017-08-07T10:34:16.130Z,24.94
2017-08-07T10:36:43.996Z,24.93
2017-08-07T10:39:11.835Z,24.92
2017-08-07T10:41:39.731Z,24.70
2017-08-07T10:44:07.457Z,24.46
2017-08-07T10:46:35.331Z,24.31
2017-08-07T10:49:03.207Z,24.67
2017-08-07T10:51:31.080Z,24.95
2017-08-07T10:53:58.864Z,24.97
2017-08-07T10:56:26.702Z,25.22
2017-08-07T10:58:54.574Z,25.40
2017-08-07T11:01:22.330Z,25.74
2017-08-07T11:03:50.204Z,25.99
2017-08-07T11:06:18.016Z,25.30
2017-08-07T11:08:45.898Z,24.82
2017-08-07T11:11:13.724Z,24.37
2017-08-07T11:13:41.614Z,24.41
2017-08-07T11:16:09.450Z,25.07
2017-08-07T11:18:37.342Z,25.82
2017-08-07T11:21:05.177Z,26.47
2017-08-07T11:23:33.018Z,26.62
2017-08-07T11:26:00.876Z,26.33
2017-08-07T11:28:28.744Z,25.67
2017-08-07T11:30:56.621Z,25.21
2017-08-07T11:33:24.480Z,24.86
2017-08-07T11:35:52.355Z,24.83
2017-08-07T11:38:20.054Z,25.23
2017-08-07T11:40:47.835Z,25.47
2017-08-07T11:43:15.576Z,25.43
2017-08-07T11:45:43.362Z,25.39
2017-08-07T11:48:11.093Z,25.52
2017-08-07T11:50:38.845Z,25.08
2017-08-07T11:53:06.556Z,24.47
2017-08-07T11:55:34.337Z,24.24
2017-08-07T11:58:02.073Z,24.09
2017-08-07T12:00:29.791Z,24.24
2017-08-07T12:02:57.567Z,24.66
2017-08-07T12:05:25.281Z,25.06
2017-08-07T12:07:53.043Z,25.35
2017-08-07T12:10:20.787Z,25.07
2017-08-07T12:12:48.560Z,24.70
2017-08-07T12:15:16.292Z,24.57
2017-08-07T12:17:44.074Z,24.65
2017-08-07T12:20:11.797Z,24.94
2017-08-07T12:22:39.555Z,25.11
2017-08-07T12:25:07.264Z,25.06
2017-08-07T12:27:35.050Z,25.44
2017-08-07T12:30:02.816Z,25.82
2017-08-07T12:32:30.544Z,26.10
2017-08-07T12:34:58.312Z,25.88
2017-08-07T12:37:26.017Z,25.33
2017-08-07T12:39:53.816Z,24.96
2017-08-07T12:42:21.568Z,24.84
2017-08-07T12:44:49.337Z,25.13
2017-08-07T12:47:17.067Z,25.67
2017-08-07T12:49:44.836Z,25.99
2017-08-07T12:52:12.555Z,25.64
2017-08-07T12:54:40.308Z,25.33
2017-08-07T12:57:08.049Z,24.96
2017-08-07T12:59:35.869Z,24.67
2017-08-07T13:02:03.599Z,24.81
2017-08-07T13:04:31.357Z,25.15
2017-08-07T13:06:59.109Z,25.31
2017-08-07T13:09:26.883Z,25.30
2017-08-07T13:11:54.657Z,25.21
2017-08-07T13:14:22.418Z,25.55
2017-08-07T13:16:50.185Z,26.12
2017-08-07T13:19:18.272Z,26.36
2017-08-07T13:21:46.032Z,26.37
2017-08-07T13:24:13.773Z,26.25
2017-08-07T13:26:41.532Z,26.20
2017-08-07T13:29:09.266Z,26.34
2017-08-07T13:31:37.018Z,26.37
2017-08-07T13:34:04.738Z,26.43
2017-08-07T13:36:32.459Z,26.09
2017-08-07T13:39:00.239Z,26.14
2017-08-07T13:41:27.963Z,26.03
2017-08-07T13:43:55.754Z,25.88
2017-08-07T13:46:23.503Z,26.02
2017-08-07T13:48:51.426Z,26.11
2017-08-07T13:51:19.260Z,26.16
2017-08-07T13:53:47.045Z,26.19
2017-08-07T13:56:14.763Z,26.08
2017-08-07T13:58:42.579Z,26.00
2017-08-07T14:01:10.506Z,25.97
2017-08-07T14:03:38.265Z,26.22
2017-08-07T14:06:06.069Z,26.18
2017-08-07T14:08:33.799Z,25.61
2017-08-07T14:11:01.580Z,25.05
2017-08-07T14:13:29.339Z,24.62
2017-08-07T14:15:57.115Z,24.56
2017-08-07T14:18:25.025Z,24.63
2017-08-07T14:20:52.798Z,25.15
2017-08-07T14:23:20.551Z,25.89
2017-08-07T14:25:48.331Z,26.47
2017-08-07T14:28:16.281Z,26.32
2017-08-07T14:30:44.184Z,25.81
2017-08-07T14:33:11.929Z,25.95
2017-08-07T14:35:39.672Z,25.99
2017-08-07T14:38:07.689Z,26.15
2017-08-07T14:40:35.580Z,26.54
2017-08-07T14:43:03.472Z,26.22
2017-08-07T14:45:31.234Z,26.18
2017-08-07T14:47:59.103Z,26.34
2017-08-07T14:50:26.920Z,26.14
2017-08-07T14:52:54.805Z,25.65
2017-08-07T14:55:22.620Z,25.68
2017-08-07T14:57:50.499Z,25.95
2017-08-07T15:00:18.439Z,26.28
2017-08-07T15:02:46.405Z,26.43
2017-08-07T15:05:14.256Z,26.55
2017-08-07T15:07:42.151Z,26.53
2017-08-07T15:10:09.937Z,26.31
2017-08-07T15:12:37.815Z,25.95
2017-08-07T15:15:05.740Z,25.85
2017-08-07T15:17:33.519Z,25.70
2017-08-07T15:20:01.406Z,25.20
2017-08-07T15:22:29.254Z,24.99
2017-08-07T15:24:57.181Z,24.99
2017-08-07T15:27:25.035Z,24.97
2017-08-07T15:29:53.016Z,25.07
2017-08-07T15:32:20.914Z,25.15
2017-08-07T15:34:48.874Z,25.39
2017-08-07T15:37:16.788Z,25.44
2017-08-07T15:39:44.658Z,25.65
2017-08-07T15:42:12.430Z,25.73
2017-08-07T15:44:40.253Z,25.61
2017-08-07T15:47:08.025Z,25.42
2017-08-07T15:49:35.790Z,25.32
2017-08-07T15:52:03.776Z,25.17
2017-08-07T15:54:31.517Z,25.23
2017-08-07T15:56:59.289Z,24.90
2017-08-07T15:59:27.203Z,24.66
2017-08-07T16:01:55.002Z,24.65
2017-08-07T16:04:22.938Z,24.70
2017-08-07T16:06:50.709Z,24.72
2017-08-07T16:09:18.707Z,24.72
2017-08-07T16:11:46.581Z,24.76
2017-08-07T16:14:14.576Z,24.83
2017-08-07T16:16:42.510Z,24.98
2017-08-07T16:19:10.527Z,25.10
2017-08-07T16:21:38.470Z,25.18
2017-08-07T16:24:06.428Z,25.02
2017-08-07T16:26:34.351Z,24.71
2017-08-07T16:29:02.368Z,24.60
2017-08-07T16:31:30.442Z,24.51
2017-08-07T16:33:58.503Z,24.44
2017-08-07T16:36:26.659Z,24.51
2017-08-07T16:38:54.697Z,24.48
2017-08-07T16:41:22.724Z,24.54
2017-08-07T16:43:50.565Z,24.58
2017-08-07T16:46:18.590Z,24.59
2017-08-07T16:48:46.569Z,24.53
2017-08-07T16:51:14.722Z,24.46
2017-08-07T16:53:42.713Z,24.42
2017-08-07T16:56:10.597Z,24.57
2017-08-07T16:58:38.775Z,24.70
2017-08-07T17:01:06.921Z,24.66
2017-08-07T17:03:34.951Z,24.78
2017-08-07T17:06:02.900Z,24.65
2017-08-07T17:08:30.755Z,24.63
2017-08-07T17:10:58.598Z,24.54
2017-08-07T17:13:33.695Z,24.49
2017-08-07T17:16:01.413Z,24.43
2017-08-07T17:18:29.205Z,24.25
2017-08-07T17:20:56.960Z,24.12
2017-08-07T17:23:24.739Z,23.98
2017-08-07T17:25:52.449Z,23.86
2017-08-07T17:28:20.237Z,23.76
2017-08-07T17:30:47.969Z,23.54
2017-08-07T17:33:15.696Z,23.38
2017-08-07T17:35:43.608Z,23.23
2017-08-07T17:38:11.458Z,23.20
2017-08-07T17:40:39.360Z,23.20
2017-08-07T17:43:07.261Z,23.16
2017-08-07T17:45:35.187Z,23.14
2017-08-07T17:48:03.040Z,23.01
2017-08-07T17:50:30.948Z,22.84
2017-08-07T17:52:58.822Z,22.72
2017-08-07T17:55:26.756Z,22.58
2017-08-07T17:57:54.634Z,22.53
2017-08-07T18:00:22.606Z,22.51
2017-08-07T18:02:50.470Z,22.48
2017-08-07T18:05:18.395Z,22.35
2017-08-07T18:07:46.380Z,22.23
2017-08-07T18:10:14.380Z,22.18
2017-08-07T18:12:42.326Z,22.07
2017-08-07T18:15:10.228Z,22.00
2017-08-07T18:17:38.332Z,21.88
2017-08-07T18:20:06.244Z,21.81
2017-08-07T18:22:34.326Z,21.76
2017-08-07T18:25:02.373Z,21.84
2017-08-07T18:27:30.410Z,21.97
2017-08-07T18:29:58.427Z,21.91
2017-08-07T18:32:26.567Z,21.73
2017-08-07T18:34:54.632Z,21.47
2017-08-07T18:37:22.692Z,21.21
2017-08-07T18:39:50.693Z,20.96
2017-08-07T18:42:18.603Z,20.82
2017-08-07T18:44:46.650Z,20.66
2017-08-07T18:47:14.653Z,20.41
2017-08-07T18:49:42.700Z,20.10
2017-08-07T18:52:10.700Z,19.90
2017-08-07T18:54:38.733Z,19.76
2017-08-07T18:57:06.693Z,19.64
2017-08-07T18:59:34.693Z,19.50
2017-08-07T19:02:02.572Z,19.35
2017-08-07T19:04:30.615Z,19.27
2017-08-07T19:06:58.490Z,19.16
2017-08-07T19:09:26.471Z,18.99
2017-08-07T19:11:54.296Z,18.82
2017-08-07T19:14:22.056Z,18.68
2017-08-07T19:16:49.860Z,18.55
2017-08-07T19:19:17.631Z,18.46
2017-08-07T19:21:45.412Z,18.36
2017-08-07T19:24:13.144Z,18.26
2017-08-07T19:26:41.039Z,18.22
2017-08-07T19:29:08.915Z,18.10
2017-08-07T19:31:36.910Z,18.05
2017-08-07T19:34:04.632Z,18.04
2017-08-07T19:36:32.532Z,18.07
2017-08-07T19:39:00.444Z,18.03
2017-08-07T19:41:28.341Z,17.89
2017-08-07T19:43:56.366Z,17.77
2017-08-07T19:46:24.169Z,17.69
2017-08-07T19:48:51.952Z,17.60
2017-08-07T19:51:19.697Z,17.57
2017-08-07T19:53:47.500Z,17.50
2017-08-07T19:56:15.307Z,17.46
2017-08-07T19:58:43.107Z,17.40
2017-08-07T20:01:10.845Z,17.33
2017-08-07T20:03:38.631Z,17.31
2017-08-07T20:06:06.376Z,17.24
2017-08-07T20:08:34.342Z,17.23
2017-08-07T20:11:02.091Z,17.21
2017-08-07T20:13:29.831Z,17.21
2017-08-07T20:15:57.666Z,17.19
2017-08-07T20:18:25.474Z,17.17
2017-08-07T20:20:53.288Z,17.16
2017-08-07T20:23:21.253Z,17.10
2017-08-07T20:25:49.067Z,17.09
2017-08-07T20:28:16.868Z,17.04
2017-08-07T20:30:44.664Z,16.99
2017-08-07T20:33:13.455Z,16.99
2017-08-07T20:35:41.164Z,17.00
2017-08-07T20:38:08.946Z,16.99
2017-08-07T20:40:36.662Z,16.99
2017-08-07T20:43:04.584Z,17.05
2017-08-07T20:45:32.538Z,17.11
2017-08-07T20:48:00.465Z,17.19
2017-08-07T20:50:28.209Z,17.25
2017-08-07T20:52:56.010Z,17.18
2017-08-07T20:55:23.949Z,17.07
2017-08-07T20:57:51.764Z,17.08
2017-08-07T21:00:19.912Z,17.16
2017-08-07T21:02:47.726Z,17.18
2017-08-07T21:05:15.475Z,17.08
2017-08-07T21:07:43.258Z,16.92
2017-08-07T21:10:13.619Z,16.80
2017-08-07T21:12:41.593Z,16.71
2017-08-07T21:15:09.425Z,16.63
2017-08-07T21:17:37.203Z,16.66
2017-08-07T21:20:04.976Z,16.62
2017-08-07T21:22:32.781Z,16.49
2017-08-07T21:25:00.580Z,16.44
2017-08-07T21:27:28.360Z,16.45
2017-08-07T21:29:56.147Z,16.46
2017-08-07T21:32:23.895Z,16.47
2017-08-07T21:34:51.650Z,16.38
2017-08-07T21:37:19.569Z,16.27
2017-08-07T21:39:47.359Z,16.21
2017-08-07T21:42:15.123Z,16.17
2017-08-07T21:44:42.922Z,16.18
2017-08-07T21:47:10.778Z,16.28
2017-08-07T21:49:38.687Z,16.40
2017-08-07T21:52:06.617Z,16.44
2017-08-07T21:54:34.464Z,16.49
2017-08-07T21:57:02.402Z,16.53
2017-08-07T21:59:30.318Z,16.52
2017-08-07T22:01:58.140Z,16.42
2017-08-07T22:04:26.051Z,16.30
2017-08-07T22:06:53.967Z,16.20
2017-08-07T22:09:21.825Z,16.12
2017-08-07T22:11:49.936Z,16.11
2017-08-07T22:14:17.801Z,16.07
2017-08-07T22:16:45.897Z,16.02
2017-08-07T22:19:13.815Z,15.95
2017-08-07T22:21:41.865Z,15.91
2017-08-07T22:24:10.002Z,15.86
2017-08-07T22:26:38.016Z,15.79
2017-08-07T22:29:06.077Z,15.69
2017-08-07T22:31:34.062Z,15.58
2017-08-07T22:34:01.883Z,15.43
2017-08-07T22:36:29.782Z,15.30
2017-08-07T22:38:57.765Z,15.21
2017-08-07T22:41:25.677Z,15.10
2017-08-07T22:43:53.650Z,15.00
2017-08-07T22:46:21.548Z,14.91
2017-08-07T22:48:49.440Z,14.83
2017-08-07T22:51:17.256Z,14.75
2017-08-07T22:53:45.184Z,14.65
2017-08-07T22:56:13.131Z,14.59
2017-08-07T22:58:41.054Z,14.52
2017-08-07T23:01:09.088Z,14.42
2017-08-07T23:03:36.917Z,14.36
2017-08-07T23:06:04.881Z,14.30
2017-08-07T23:08:32.816Z,14.24
2017-08-07T23:11:00.723Z,14.18
2017-08-07T23:13:28.574Z,14.13
2017-08-07T23:15:56.511Z,14.05
2017-08-07T23:18:24.345Z,14.01
2017-08-07T23:20:52.311Z,13.97
2017-08-07T23:23:20.248Z,13.95
2017-08-07T23:25:48.165Z,13.95
2017-08-07T23:28:16.037Z,13.94
2017-08-07T23:30:43.815Z,13.91
2017-08-07T23:33:11.571Z,13.88
2017-08-07T23:35:39.536Z,13.84
2017-08-07T23:38:07.470Z,13.74
2017-08-07T23:40:35.348Z,13.64
2017-08-07T23:43:03.293Z,13.55
2017-08-07T23:45:31.132Z,13.49
2017-08-07T23:47:59.086Z,13.43
2017-08-07T23:50:26.988Z,13.38
2017-08-07T23:52:54.938Z,13.32
2017-08-07T23:55:22.888Z,13.29
2017-08-07T23:57:50.797Z,13.25
